createdAt,value
2019-03-22T00:01:14.608Z,456.13
2019-03-22T00:03:41.452Z,488.25
2019-03-22T00:06:08.251Z,459.57
2019-03-22T00:08:35.403Z,437.55
2019-03-22T00:11:02.247Z,505.50
2019-03-22T00:13:29.132Z,487.12
2019-03-22T00:15:56.240Z,550.57
2019-03-22T00:18:23.083Z,519.02
2019-03-22T00:20:50.240Z,488.00
2019-03-22T00:23:17.084Z,496.22
2019-03-22T00:25:44.230Z,622.00
2019-03-22T00:28:11.378Z,534.95
2019-03-22T00:30:38.222Z,518.30
2019-03-22T00:33:05.372Z,566.17
2019-03-22T00:35:32.215Z,512.65
2019-03-22T00:37:59.059Z,590.02
2019-03-22T00:40:26.210Z,675.53
2019-03-22T07:41:45.390Z,31.00
2019-03-22T07:44:12.233Z,9.25
2019-03-22T07:46:38.988Z,5.45
2019-03-22T07:49:05.920Z,6.25
2019-03-22T07:51:32.763Z,6.10
2019-03-22T07:53:59.606Z,6.05
2019-03-22T07:58:52.986Z,12.30
2019-03-22T08:01:19.835Z,4.97
2019-03-22T08:03:46.682Z,193.33
2019-03-22T08:06:13.518Z,9.35
2019-03-22T08:08:40.363Z,21.60
2019-03-22T08:11:07.205Z,41.58
2019-03-22T08:13:34.365Z,34.63
2019-03-22T08:16:01.204Z,40.23
2019-03-22T08:18:28.043Z,65.60
2019-03-22T08:20:54.886Z,5.28
2019-03-22T08:23:22.372Z,35.48
2019-03-22T08:25:49.495Z,26.17
2019-03-22T08:28:16.338Z,27.67
2019-03-22T08:30:43.519Z,28.95
2019-03-22T08:33:10.660Z,9.05
2019-03-22T08:35:37.483Z,34.13
2019-03-22T08:38:04.333Z,139.68
2019-03-22T09:58:55.076Z,616.23
2019-03-22T10:01:23.858Z,785.87
2019-03-22T10:03:50.605Z,798.05
2019-03-22T10:11:11.198Z,596.65
2019-03-22T10:13:38.354Z,515.27
2019-03-22T10:16:05.434Z,496.37
2019-03-22T10:18:32.608Z,529.60
2019-03-22T10:20:59.426Z,519.75
2019-03-22T10:23:26.269Z,476.10
2019-03-22T10:25:53.113Z,477.60
2019-03-22T10:28:19.991Z,466.20
2019-03-22T10:30:47.149Z,421.35
2019-03-22T10:33:22.713Z,392.45
2019-03-22T10:35:42.641Z,730.20
2019-03-22T10:38:16.037Z,815.67
2019-03-22T10:40:38.271Z,915.08
2019-03-22T10:43:05.356Z,945.12
2019-03-22T10:45:32.523Z,956.23
2019-03-22T10:47:59.618Z,953.00
2019-03-22T10:50:26.464Z,306.70
2019-03-22T10:52:53.306Z,8.63
2019-03-22T10:55:29.866Z,7.30
2019-03-22T10:57:49.147Z,6.62
2019-03-22T11:00:16.927Z,6.83
2019-03-22T11:02:44.059Z,5.65
2019-03-22T11:05:11.210Z,6.83
2019-03-22T11:07:38.052Z,5.10
2019-03-22T11:10:07.847Z,5.20
2019-03-22T11:12:34.810Z,6.50
2019-03-22T11:15:01.658Z,7.40
2019-03-22T11:17:28.498Z,7.12
2019-03-22T11:19:57.407Z,5.83
2019-03-22T11:22:24.035Z,5.55
2019-03-22T11:27:17.714Z,5.30
2019-03-22T11:29:44.559Z,6.37
2019-03-22T11:32:12.756Z,5.97
2019-03-22T11:34:40.087Z,6.58
2019-03-22T11:37:07.787Z,5.60
2019-03-22T11:39:35.003Z,6.92
2019-03-22T11:42:01.849Z,6.30
2019-03-22T11:44:28.697Z,6.60
2019-03-22T11:46:55.546Z,7.97
2019-03-22T11:49:22.379Z,6.67
2019-03-22T11:51:49.220Z,7.55
2019-03-22T11:54:16.063Z,8.70
2019-03-22T11:56:42.906Z,7.80
2019-03-22T11:59:09.749Z,8.78
2019-03-22T12:01:36.594Z,7.30
2019-03-22T12:04:03.847Z,7.30
2019-03-22T12:06:30.896Z,8.70
2019-03-22T12:08:57.737Z,8.35
2019-03-22T12:11:24.891Z,18.50
2019-03-22T12:13:51.733Z,9.30
2019-03-22T12:16:18.575Z,8.25
2019-03-22T12:18:45.419Z,7.80
2019-03-22T12:21:12.261Z,7.40
2019-03-22T12:23:39.109Z,6.37
2019-03-22T12:26:06.577Z,7.50
2019-03-22T12:28:33.717Z,6.85
2019-03-22T12:31:00.864Z,7.08
2019-03-22T12:33:27.708Z,6.10
2019-03-22T12:36:01.518Z,7.12
2019-03-22T12:38:28.460Z,8.10
2019-03-22T12:40:55.304Z,5.90
2019-03-22T12:43:22.153Z,6.62
2019-03-22T12:45:50.530Z,144.28
2019-03-22T12:48:17.304Z,383.23
2019-03-22T12:50:44.212Z,980.35
2019-03-22T12:53:11.056Z,957.67
2019-03-22T12:55:37.899Z,999.90
2019-03-22T12:58:04.742Z,999.90
2019-03-22T13:00:31.897Z,999.90
2019-03-22T13:02:58.736Z,999.90
2019-03-22T13:05:25.616Z,999.90
2019-03-22T13:07:52.739Z,999.90
2019-03-22T13:10:26.496Z,999.90
2019-03-22T13:12:53.483Z,999.90
2019-03-22T13:15:20.326Z,999.90
2019-03-22T13:17:47.477Z,999.90
2019-03-22T13:20:14.842Z,999.90
2019-03-22T13:22:41.780Z,999.90
2019-03-22T13:25:10.740Z,999.90
2019-03-22T13:27:37.615Z,999.90
2019-03-22T13:30:07.225Z,999.90
2019-03-22T13:32:33.967Z,999.90
2019-03-22T13:35:00.680Z,999.90
2019-03-22T13:37:27.415Z,999.90
2019-03-22T13:39:54.092Z,999.90
2019-03-22T13:42:21.133Z,999.90
2019-03-22T13:44:47.980Z,999.90
2019-03-22T13:49:41.668Z,969.50
2019-03-22T13:52:08.815Z,932.70
2019-03-22T13:54:35.658Z,911.17
2019-03-22T13:57:02.500Z,893.60
2019-03-22T14:01:56.190Z,867.05
2019-03-22T14:04:23.038Z,802.90
2019-03-22T14:06:49.876Z,770.30
2019-03-22T14:09:16.820Z,788.55
2019-03-22T14:11:43.868Z,884.70
2019-03-22T14:14:10.711Z,859.40
2019-03-22T14:16:37.555Z,832.45
2019-03-22T14:19:04.705Z,835.57
2019-03-22T14:21:31.549Z,814.52
2019-03-22T14:23:58.392Z,784.10
2019-03-22T16:00:26.114Z,8.20
2019-03-22T16:02:52.954Z,8.80
2019-03-22T16:05:20.105Z,8.63
2019-03-22T16:07:47.497Z,49.42
2019-03-22T16:10:14.407Z,8.85
2019-03-22T16:12:41.249Z,7.55
2019-03-22T16:15:10.857Z,10.30
2019-03-22T16:17:37.701Z,7.67
2019-03-22T16:20:10.688Z,7.62
2019-03-22T16:22:37.531Z,48.70
2019-03-22T16:25:07.179Z,9.20
2019-03-22T16:27:34.019Z,8.93
2019-03-22T16:30:00.827Z,8.37
2019-03-22T16:32:27.670Z,11.65
2019-03-22T16:34:54.516Z,11.18
2019-03-22T16:37:21.359Z,8.85
2019-03-22T16:39:48.204Z,999.90
2019-03-22T16:42:15.046Z,111.60
2019-03-22T16:44:41.887Z,450.40
2019-03-22T16:47:09.041Z,378.67
2019-03-22T16:49:36.191Z,92.42
2019-03-22T16:52:03.338Z,20.60
2019-03-22T16:54:30.489Z,26.60
2019-03-22T16:56:57.333Z,48.95
2019-03-22T16:59:24.176Z,21.00
2019-03-22T17:01:51.055Z,10.25
2019-03-22T17:04:17.863Z,20.85
2019-03-22T17:06:44.707Z,377.87
2019-03-22T17:09:11.552Z,25.43
2019-03-22T17:11:38.394Z,999.90
2019-03-22T17:14:05.237Z,999.90
2019-03-22T17:16:32.083Z,996.35
2019-03-22T17:18:58.928Z,994.92
2019-03-22T17:21:25.766Z,931.25
2019-03-22T17:23:52.613Z,911.80
2019-03-22T17:31:12.836Z,11.70
2019-03-22T17:33:39.985Z,11.27
2019-03-22T17:36:06.828Z,10.20
2019-03-22T17:38:33.573Z,8.57
2019-03-22T17:41:00.520Z,9.00
2019-03-22T17:43:27.358Z,9.30
2019-03-22T17:45:54.508Z,9.20
2019-03-22T17:48:21.352Z,7.87
2019-03-22T17:50:48.196Z,8.63
2019-03-22T17:53:15.347Z,7.30
2019-03-22T17:55:42.189Z,6.50
2019-03-22T17:58:09.036Z,8.00
2019-03-22T18:00:36.287Z,6.85
2019-03-22T18:03:04.257Z,6.45
2019-03-22T18:05:31.098Z,9.00
2019-03-22T18:07:57.943Z,12.63
2019-03-22T18:10:24.788Z,12.13
2019-03-22T18:12:51.629Z,10.00
2019-03-22T18:47:32.627Z,18.47
2019-03-22T18:49:59.470Z,9.67
2019-03-22T18:52:26.314Z,27.60
2019-03-22T18:54:53.158Z,8.35
2019-03-22T18:57:20.000Z,7.10
2019-03-22T18:59:46.844Z,7.60
2019-03-22T19:02:13.934Z,7.83
2019-03-22T19:04:44.335Z,10.48
2019-03-22T19:07:09.255Z,6.53
2019-03-22T19:09:36.063Z,7.60
2019-03-22T19:12:03.212Z,7.37
2019-03-22T19:14:30.055Z,6.90
2019-03-22T19:16:56.898Z,6.08
2019-03-22T19:19:23.741Z,6.00
2019-03-22T19:21:50.587Z,5.87
2019-03-22T19:24:17.739Z,5.00
2019-03-22T19:26:44.581Z,5.23
2019-03-22T19:29:11.437Z,5.03
2019-03-22T19:31:38.678Z,6.05
2019-03-22T19:34:05.418Z,5.05
2019-03-22T19:36:32.259Z,5.72
2019-03-22T19:38:59.104Z,6.20
2019-03-22T19:41:26.257Z,4.75
2019-03-22T19:43:53.096Z,6.53
2019-03-22T19:46:19.975Z,5.60
2019-03-22T19:48:46.753Z,19.30
2019-03-22T19:51:13.627Z,34.85
2019-03-22T20:37:44.265Z,16.13
2019-03-22T20:40:17.560Z,5.72
2019-03-22T20:42:44.404Z,6.42
2019-03-22T20:45:11.554Z,7.30
2019-03-22T20:47:38.398Z,8.10
2019-03-22T20:50:07.634Z,8.40
2019-03-22T20:52:34.542Z,8.83
2019-03-22T20:55:01.385Z,12.30
2019-03-22T20:57:28.231Z,8.73
2019-03-22T20:59:55.073Z,8.83
2019-03-22T21:02:22.222Z,7.92
2019-03-22T21:04:49.073Z,6.15
2019-03-22T21:07:15.877Z,8.18
2019-03-22T21:09:43.076Z,7.15
2019-03-22T21:12:09.904Z,6.70
2019-03-22T21:14:36.750Z,6.20
2019-03-22T21:17:03.590Z,6.50
2019-03-22T21:19:30.433Z,6.00
2019-03-22T21:21:57.277Z,5.30
2019-03-22T21:24:24.430Z,5.25
2019-03-22T21:26:51.274Z,4.87
2019-03-22T21:29:18.115Z,4.97
2019-03-22T21:31:44.958Z,6.20
2019-03-22T21:34:11.860Z,6.33
2019-03-22T21:36:38.952Z,4.75
2019-03-22T21:39:06.410Z,5.37
2019-03-22T21:41:33.253Z,5.78
2019-03-22T21:44:00.097Z,5.12
2019-03-22T21:46:26.940Z,6.42
2019-03-22T21:48:53.783Z,5.58
2019-03-22T21:51:20.628Z,7.10
2019-03-22T21:53:47.470Z,5.22
2019-03-22T21:56:14.318Z,7.80
2019-03-22T21:58:41.157Z,5.95
2019-03-22T22:01:08.000Z,5.22
2019-03-22T22:03:34.846Z,6.10
2019-03-22T22:06:01.690Z,6.70
2019-03-22T22:08:28.530Z,6.13
2019-03-22T22:10:59.798Z,7.03
2019-03-22T22:13:24.063Z,6.53
2019-03-22T22:15:50.906Z,6.60
2019-03-22T22:18:18.056Z,6.00
2019-03-22T22:20:44.900Z,6.37
2019-03-22T22:23:11.768Z,7.33
2019-03-22T22:25:38.586Z,6.72
2019-03-22T22:28:05.428Z,7.58
2019-03-22T22:30:32.272Z,8.18
2019-03-22T22:32:59.053Z,7.70
2019-03-22T22:35:25.959Z,7.70
2019-03-22T22:37:52.805Z,7.75
2019-03-22T22:40:19.646Z,9.00
2019-03-22T22:42:46.488Z,7.92
2019-03-22T22:45:14.253Z,5.90
2019-03-22T22:47:41.098Z,6.90
2019-03-22T22:50:10.397Z,7.47
2019-03-22T22:52:37.547Z,7.22
2019-03-22T22:55:04.636Z,7.70
2019-03-22T22:57:31.544Z,7.87
2019-03-22T22:59:58.385Z,7.40
2019-03-22T23:02:25.232Z,6.78
2019-03-22T23:04:52.075Z,6.85
2019-03-22T23:07:18.918Z,5.60
2019-03-22T23:09:45.760Z,6.00
2019-03-22T23:12:12.603Z,5.95
2019-03-22T23:14:39.445Z,5.50
2019-03-22T23:17:06.292Z,5.80
2019-03-22T23:19:33.134Z,5.70
2019-03-22T23:22:00.283Z,5.92
2019-03-22T23:24:27.130Z,7.40
2019-03-22T23:26:53.970Z,5.78
2019-03-22T23:29:20.814Z,6.15
2019-03-22T23:31:49.277Z,7.47
2019-03-22T23:34:16.343Z,5.83
2019-03-22T23:36:43.495Z,6.83
2019-03-22T23:39:10.338Z,6.95
2019-03-22T23:41:37.181Z,5.67
2019-03-22T23:44:04.332Z,6.12
2019-03-22T23:46:31.175Z,5.15
2019-03-22T23:48:58.018Z,6.25
2019-03-22T23:51:24.862Z,4.35
2019-03-22T23:53:51.705Z,5.08
2019-03-22T23:56:18.550Z,4.97
2019-03-22T23:58:45.427Z,5.03
